Beckley, WV

3:05 PM EDT on September 04, 2015 (GMT -0400)
Southeast Beckley | | Change Station
CLOSE
Current Station
Personal Weather Station
Location: Beckley, WV
Elevation: 2365 ft
Nearby Weather Stations

Elev 2365 ft 37.76 °N, 81.16 °W | Updated 6 seconds ago

Clear
Clear
80.1 °F
Feels Like 83 °F
N
4.6
Wind Variable Wind from NNW
Gusts 4.6 mph

Today
High -- | Low -- °F
--% Chance of Precip.
Yesterday
High -- | Low -- °F
Precip. -- in
6:57 AM 7:50 PM
Waning Gibbous, 57% visible
Pressure 30.03 in
Visibility 10.0 miles
Clouds Few 3500 ft
Heat Index 83 °F
Dew Point 68 °F
Humidity 67%
Rainfall 0.00 in
Snow Depth Not available.
UV 8 out of 12
Pollen 9.50 out of 12
Air Quality Not available.
Flu Activity Not available.
METAR KBKW 041851Z AUTO 33008KT 10SM VCTS FEW035 28/18 A3014 RMK AO2 LTG DSNT SE AND S SLP169 T02830178
Pressure 30.03 in
Visibility 10.0 miles
Clouds Few 3500 ft
Heat Index 83 °F
Dew Point 68 °F
Humidity 67%
Rainfall 0.00 in
Snow Depth Not available.
UV 8 out of 12
Pollen 9.50 out of 12
Air Quality Not available.
Flu Activity Not available.
METAR KBKW 041851Z AUTO 33008KT 10SM VCTS FEW035 28/18 A3014 RMK AO2 LTG DSNT SE AND S SLP169 T02830178

10-Day Weather Forecast

×

Almanac

Astronomy

Sep. 04, 2015 Rise Set
Actual Time
Civil Twilight
Nautical Twilight
Astronomical Twilight
Moon
Length of Visible Light
Length of Day
Tomorrow will be .
, % of the Moon is Illuminated

Today's Extremes

State Highs State Lows

Community

WunderPhotos

Upload Photos

1,852,267 photos uploaded!

WunderBlogs® & News

Nearby

Air Quality

  Air Quality AQ Index Pollutant
Not available.

Snow Depth

Station Depth Elevation

Earthquake Activity

City Distance Mag. Time & Date
Minimum magnitude displayed is 2.5.

Coastal Water Temperatures

Place Temperature

Stations

Nearby Weather Stations

Station Location Temp. Windchill Dew Point Humidity Wind Precip. Elev Updated Type